sensor_id;sensor_type;location;lat;lon;timestamp;temperature;humidity
34829;DHT22;21042;47.620;12.188;2023-05-19T00:02:06;9.10;99.90
34829;DHT22;21042;47.620;12.188;2023-05-19T00:04:35;9.10;99.90
34829;DHT22;21042;47.620;12.188;2023-05-19T00:07:02;9.10;99.90
34829;DHT22;21042;47.620;12.188;2023-05-19T00:09:31;9.10;99.90
34829;DHT22;21042;47.620;12.188;2023-05-19T00:11:58;9.10;99.90
34829;DHT22;21042;47.620;12.188;2023-05-19T00:14:25;9.00;99.90
34829;DHT22;21042;47.620;12.188;2023-05-19T00:16:52;9.00;99.90
34829;DHT22;21042;47.620;12.188;2023-05-19T00:19:18;8.90;99.90
34829;DHT22;21042;47.620;12.188;2023-05-19T00:21:45;8.90;99.90
34829;DHT22;21042;47.620;12.188;2023-05-19T00:24:12;8.90;99.90
34829;DHT22;21042;47.620;12.188;2023-05-19T00:26:39;8.90;99.90
34829;DHT22;21042;47.620;12.188;2023-05-19T00:29:06;8.80;99.90
34829;DHT22;21042;47.620;12.188;2023-05-19T00:31:33;8.90;99.90
34829;DHT22;21042;47.620;12.188;2023-05-19T00:34:00;8.80;99.90
34829;DHT22;21042;47.620;12.188;2023-05-19T00:36:27;8.80;99.90
34829;DHT22;21042;47.620;12.188;2023-05-19T00:38:54;8.80;99.90
34829;DHT22;21042;47.620;12.188;2023-05-19T00:41:21;8.80;99.90
34829;DHT22;21042;47.620;12.188;2023-05-19T00:43:49;8.80;99.90
34829;DHT22;21042;47.620;12.188;2023-05-19T00:46:17;8.80;99.90
34829;DHT22;21042;47.620;12.188;2023-05-19T00:48:44;8.80;99.90
34829;DHT22;21042;47.620;12.188;2023-05-19T00:51:12;8.80;99.90
34829;DHT22;21042;47.620;12.188;2023-05-19T00:53:43;8.70;99.90
34829;DHT22;21042;47.620;12.188;2023-05-19T00:56:14;8.70;99.90
34829;DHT22;21042;47.620;12.188;2023-05-19T00:58:44;8.70;99.90
34829;DHT22;21042;47.620;12.188;2023-05-19T01:01:11;8.70;99.90
34829;DHT22;21042;47.620;12.188;2023-05-19T01:03:40;8.60;99.90
34829;DHT22;21042;47.620;12.188;2023-05-19T01:06:09;8.60;99.90
34829;DHT22;21042;47.620;12.188;2023-05-19T01:08:38;8.60;99.90
34829;DHT22;21042;47.620;12.188;2023-05-19T01:11:06;8.50;99.90
34829;DHT22;21042;47.620;12.188;2023-05-19T01:13:34;8.50;99.90
34829;DHT22;21042;47.620;12.188;2023-05-19T01:16:48;8.50;99.90
34829;DHT22;21042;47.620;12.188;2023-05-19T01:30:43;8.50;99.90
34829;DHT22;21042;47.620;12.188;2023-05-19T01:33:12;8.50;99.90
34829;DHT22;21042;47.620;12.188;2023-05-19T01:35:42;8.50;99.90
34829;DHT22;21042;47.620;12.188;2023-05-19T01:38:11;8.50;99.90
34829;DHT22;21042;47.620;12.188;2023-05-19T01:40:41;8.50;99.90
34829;DHT22;21042;47.620;12.188;2023-05-19T01:43:13;8.50;99.90
34829;DHT22;21042;47.620;12.188;2023-05-19T01:45:40;8.40;99.90
34829;DHT22;21042;47.620;12.188;2023-05-19T01:48:08;8.40;99.90
34829;DHT22;21042;47.620;12.188;2023-05-19T01:50:38;8.40;99.90
34829;DHT22;21042;47.620;12.188;2023-05-19T01:53:06;8.30;99.90
34829;DHT22;21042;47.620;12.188;2023-05-19T01:55:35;8.40;99.90
34829;DHT22;21042;47.620;12.188;2023-05-19T02:01:18;8.30;99.90
34829;DHT22;21042;47.620;12.188;2023-05-19T02:06:40;8.30;99.90
34829;DHT22;21042;47.620;12.188;2023-05-19T02:09:22;8.30;99.90
34829;DHT22;21042;47.620;12.188;2023-05-19T02:12:00;8.30;99.90
34829;DHT22;21042;47.620;12.188;2023-05-19T02:14:34;8.30;99.90
34829;DHT22;21042;47.620;12.188;2023-05-19T02:17:04;8.30;99.90
34829;DHT22;21042;47.620;12.188;2023-05-19T02:19:35;8.40;99.90
34829;DHT22;21042;47.620;12.188;2023-05-19T02:22:02;8.40;99.90
34829;DHT22;21042;47.620;12.188;2023-05-19T02:24:29;8.40;99.90
34829;DHT22;21042;47.620;12.188;2023-05-19T02:26:57;8.40;99.90
34829;DHT22;21042;47.620;12.188;2023-05-19T02:29:25;8.40;99.90
34829;DHT22;21042;47.620;12.188;2023-05-19T02:31:52;8.40;99.90
34829;DHT22;21042;47.620;12.188;2023-05-19T02:34:18;8.40;99.90
34829;DHT22;21042;47.620;12.188;2023-05-19T02:36:46;8.40;99.90
34829;DHT22;21042;47.620;12.188;2023-05-19T02:39:15;8.40;99.90
34829;DHT22;21042;47.620;12.188;2023-05-19T02:41:42;8.40;99.90
34829;DHT22;21042;47.620;12.188;2023-05-19T02:44:08;8.50;99.90
34829;DHT22;21042;47.620;12.188;2023-05-19T02:46:36;8.50;99.90
34829;DHT22;21042;47.620;12.188;2023-05-19T02:49:02;8.50;99.90
34829;DHT22;21042;47.620;12.188;2023-05-19T02:51:29;8.50;99.90
34829;DHT22;21042;47.620;12.188;2023-05-19T02:53:56;8.50;99.90
34829;DHT22;21042;47.620;12.188;2023-05-19T02:56:23;8.50;99.90
34829;DHT22;21042;47.620;12.188;2023-05-19T02:58:50;8.50;99.90
34829;DHT22;21042;47.620;12.188;2023-05-19T03:01:19;8.60;99.90
34829;DHT22;21042;47.620;12.188;2023-05-19T03:03:47;8.50;99.90
34829;DHT22;21042;47.620;12.188;2023-05-19T03:06:14;8.50;99.90
34829;DHT22;21042;47.620;12.188;2023-05-19T03:08:43;8.40;99.90
34829;DHT22;21042;47.620;12.188;2023-05-19T03:11:10;8.40;99.90
34829;DHT22;21042;47.620;12.188;2023-05-19T03:13:37;8.50;99.90
34829;DHT22;21042;47.620;12.188;2023-05-19T03:16:04;8.50;99.90
34829;DHT22;21042;47.620;12.188;2023-05-19T03:18:33;8.50;99.90
34829;DHT22;21042;47.620;12.188;2023-05-19T03:21:00;8.50;99.90
34829;DHT22;21042;47.620;12.188;2023-05-19T03:23:27;8.50;99.90
34829;DHT22;21042;47.620;12.188;2023-05-19T03:25:54;8.40;99.90
34829;DHT22;21042;47.620;12.188;2023-05-19T03:28:22;8.50;99.90
34829;DHT22;21042;47.620;12.188;2023-05-19T03:30:49;8.50;99.90
34829;DHT22;21042;47.620;12.188;2023-05-19T03:33:18;8.50;99.90
34829;DHT22;21042;47.620;12.188;2023-05-19T03:35:45;8.50;99.90
34829;DHT22;21042;47.620;12.188;2023-05-19T03:38:13;8.50;99.90
34829;DHT22;21042;47.620;12.188;2023-05-19T03:40:47;8.50;99.90
34829;DHT22;21042;47.620;12.188;2023-05-19T03:43:14;8.50;99.90
34829;DHT22;21042;47.620;12.188;2023-05-19T03:45:48;8.50;99.90
34829;DHT22;21042;47.620;12.188;2023-05-19T03:48:34;8.50;99.90
34829;DHT22;21042;47.620;12.188;2023-05-19T03:51:21;8.60;99.90
34829;DHT22;21042;47.620;12.188;2023-05-19T03:53:50;8.60;99.90
34829;DHT22;21042;47.620;12.188;2023-05-19T03:56:18;8.60;99.90
34829;DHT22;21042;47.620;12.188;2023-05-19T03:58:46;8.60;99.90
34829;DHT22;21042;47.620;12.188;2023-05-19T04:01:15;8.70;99.90
34829;DHT22;21042;47.620;12.188;2023-05-19T04:03:42;8.70;99.90
34829;DHT22;21042;47.620;12.188;2023-05-19T04:06:08;8.70;99.90
34829;DHT22;21042;47.620;12.188;2023-05-19T04:08:36;8.70;99.90
34829;DHT22;21042;47.620;12.188;2023-05-19T04:11:03;8.70;99.90
34829;DHT22;21042;47.620;12.188;2023-05-19T04:13:32;8.70;99.90
34829;DHT22;21042;47.620;12.188;2023-05-19T04:15:59;8.70;99.90
34829;DHT22;21042;47.620;12.188;2023-05-19T04:18:26;8.70;99.90
34829;DHT22;21042;47.620;12.188;2023-05-19T04:20:55;8.70;99.90
34829;DHT22;21042;47.620;12.188;2023-05-19T04:23:21;8.80;99.90
34829;DHT22;21042;47.620;12.188;2023-05-19T04:25:48;8.80;99.90
34829;DHT22;21042;47.620;12.188;2023-05-19T04:28:15;8.80;99.90
34829;DHT22;21042;47.620;12.188;2023-05-19T04:30:43;8.80;99.90
34829;DHT22;21042;47.620;12.188;2023-05-19T04:33:12;8.80;99.90
34829;DHT22;21042;47.620;12.188;2023-05-19T04:35:39;8.80;99.90
34829;DHT22;21042;47.620;12.188;2023-05-19T04:38:08;8.80;99.90
34829;DHT22;21042;47.620;12.188;2023-05-19T04:40:36;8.80;99.90
34829;DHT22;21042;47.620;12.188;2023-05-19T04:43:03;8.80;99.90
34829;DHT22;21042;47.620;12.188;2023-05-19T04:45:30;8.80;99.90
34829;DHT22;21042;47.620;12.188;2023-05-19T04:48:00;8.80;99.90
34829;DHT22;21042;47.620;12.188;2023-05-19T04:50:27;8.90;99.90
34829;DHT22;21042;47.620;12.188;2023-05-19T04:52:56;8.90;99.90
34829;DHT22;21042;47.620;12.188;2023-05-19T04:55:25;9.00;99.90
34829;DHT22;21042;47.620;12.188;2023-05-19T04:57:52;9.00;99.90
34829;DHT22;21042;47.620;12.188;2023-05-19T05:00:20;9.10;99.90
34829;DHT22;21042;47.620;12.188;2023-05-19T05:02:57;9.20;99.90
34829;DHT22;21042;47.620;12.188;2023-05-19T05:05:27;9.20;99.90
34829;DHT22;21042;47.620;12.188;2023-05-19T05:07:54;9.30;99.90
34829;DHT22;21042;47.620;12.188;2023-05-19T05:10:23;9.30;99.90
34829;DHT22;21042;47.620;12.188;2023-05-19T05:12:50;9.40;99.90
34829;DHT22;21042;47.620;12.188;2023-05-19T05:15:17;9.30;99.90
34829;DHT22;21042;47.620;12.188;2023-05-19T05:17:47;9.30;99.90
34829;DHT22;21042;47.620;12.188;2023-05-19T05:20:15;9.30;99.90
34829;DHT22;21042;47.620;12.188;2023-05-19T05:22:42;9.30;99.90
34829;DHT22;21042;47.620;12.188;2023-05-19T05:25:11;9.30;99.90
34829;DHT22;21042;47.620;12.188;2023-05-19T05:27:38;9.30;99.90
34829;DHT22;21042;47.620;12.188;2023-05-19T05:30:07;9.40;99.90
34829;DHT22;21042;47.620;12.188;2023-05-19T05:32:35;9.40;99.90
34829;DHT22;21042;47.620;12.188;2023-05-19T05:35:08;9.40;99.90
34829;DHT22;21042;47.620;12.188;2023-05-19T05:37:36;9.50;99.90
34829;DHT22;21042;47.620;12.188;2023-05-19T05:40:04;9.50;99.90
34829;DHT22;21042;47.620;12.188;2023-05-19T05:42:33;9.60;99.90
34829;DHT22;21042;47.620;12.188;2023-05-19T05:45:00;9.60;99.90
34829;DHT22;21042;47.620;12.188;2023-05-19T05:47:27;9.70;99.90
34829;DHT22;21042;47.620;12.188;2023-05-19T05:49:54;9.80;99.90
34829;DHT22;21042;47.620;12.188;2023-05-19T05:52:21;9.80;99.90
34829;DHT22;21042;47.620;12.188;2023-05-19T05:54:51;9.90;99.90
34829;DHT22;21042;47.620;12.188;2023-05-19T05:57:19;9.90;99.90
34829;DHT22;21042;47.620;12.188;2023-05-19T05:59:46;9.90;99.90
34829;DHT22;21042;47.620;12.188;2023-05-19T06:02:14;9.90;99.90
34829;DHT22;21042;47.620;12.188;2023-05-19T06:04:41;9.90;99.90
34829;DHT22;21042;47.620;12.188;2023-05-19T06:07:07;9.80;99.90
34829;DHT22;21042;47.620;12.188;2023-05-19T06:09:36;9.90;99.90
34829;DHT22;21042;47.620;12.188;2023-05-19T06:12:05;10.00;99.90
34829;DHT22;21042;47.620;12.188;2023-05-19T06:14:37;10.20;99.90
34829;DHT22;21042;47.620;12.188;2023-05-19T06:17:13;10.40;99.90
34829;DHT22;21042;47.620;12.188;2023-05-19T06:19:40;10.50;99.90
34829;DHT22;21042;47.620;12.188;2023-05-19T06:22:06;10.70;99.90
34829;DHT22;21042;47.620;12.188;2023-05-19T06:24:33;10.80;99.90
34829;DHT22;21042;47.620;12.188;2023-05-19T06:27:00;10.90;99.90
34829;DHT22;21042;47.620;12.188;2023-05-19T06:29:27;10.90;99.90
34829;DHT22;21042;47.620;12.188;2023-05-19T06:31:57;11.00;99.90
34829;DHT22;21042;47.620;12.188;2023-05-19T06:34:24;11.20;99.90
34829;DHT22;21042;47.620;12.188;2023-05-19T06:36:52;11.50;99.90
34829;DHT22;21042;47.620;12.188;2023-05-19T06:39:19;11.70;99.90
34829;DHT22;21042;47.620;12.188;2023-05-19T06:41:45;11.90;99.90
34829;DHT22;21042;47.620;12.188;2023-05-19T06:44:25;12.00;99.90
34829;DHT22;21042;47.620;12.188;2023-05-19T06:46:52;12.20;99.90
34829;DHT22;21042;47.620;12.188;2023-05-19T06:49:19;12.30;99.90
34829;DHT22;21042;47.620;12.188;2023-05-19T06:51:47;12.40;99.90
34829;DHT22;21042;47.620;12.188;2023-05-19T06:54:14;12.60;99.90
34829;DHT22;21042;47.620;12.188;2023-05-19T06:56:41;12.70;99.90
34829;DHT22;21042;47.620;12.188;2023-05-19T06:59:09;12.80;99.90
34829;DHT22;21042;47.620;12.188;2023-05-19T07:01:36;12.70;99.90
34829;DHT22;21042;47.620;12.188;2023-05-19T07:04:03;12.80;99.90
34829;DHT22;21042;47.620;12.188;2023-05-19T07:06:30;12.90;99.90
34829;DHT22;21042;47.620;12.188;2023-05-19T07:08:57;13.00;99.90
34829;DHT22;21042;47.620;12.188;2023-05-19T07:11:24;13.10;99.90
34829;DHT22;21042;47.620;12.188;2023-05-19T07:13:52;12.90;99.90
34829;DHT22;21042;47.620;12.188;2023-05-19T07:16:25;12.70;99.90
34829;DHT22;21042;47.620;12.188;2023-05-19T07:18:53;12.70;99.90
34829;DHT22;21042;47.620;12.188;2023-05-19T07:21:20;12.70;99.90
34829;DHT22;21042;47.620;12.188;2023-05-19T07:23:48;12.80;99.90
34829;DHT22;21042;47.620;12.188;2023-05-19T07:26:15;12.90;99.90
34829;DHT22;21042;47.620;12.188;2023-05-19T07:28:42;12.90;99.90
34829;DHT22;21042;47.620;12.188;2023-05-19T07:31:09;12.90;99.90
34829;DHT22;21042;47.620;12.188;2023-05-19T07:33:35;12.80;99.90
34829;DHT22;21042;47.620;12.188;2023-05-19T07:36:02;12.70;99.90
34829;DHT22;21042;47.620;12.188;2023-05-19T07:38:29;12.70;99.90
34829;DHT22;21042;47.620;12.188;2023-05-19T07:41:00;12.60;99.90
34829;DHT22;21042;47.620;12.188;2023-05-19T07:43:28;12.60;99.90
34829;DHT22;21042;47.620;12.188;2023-05-19T07:45:55;12.70;99.90
34829;DHT22;21042;47.620;12.188;2023-05-19T07:48:22;12.80;99.90
34829;DHT22;21042;47.620;12.188;2023-05-19T07:50:51;13.00;99.90
34829;DHT22;21042;47.620;12.188;2023-05-19T07:53:19;13.10;99.90
34829;DHT22;21042;47.620;12.188;2023-05-19T07:55:45;13.20;99.90
34829;DHT22;21042;47.620;12.188;2023-05-19T07:58:12;13.30;99.90
34829;DHT22;21042;47.620;12.188;2023-05-19T08:00:39;13.20;99.90
34829;DHT22;21042;47.620;12.188;2023-05-19T08:03:08;13.30;99.90
34829;DHT22;21042;47.620;12.188;2023-05-19T08:05:36;13.40;99.90
34829;DHT22;21042;47.620;12.188;2023-05-19T08:08:03;13.40;99.90
34829;DHT22;21042;47.620;12.188;2023-05-19T08:10:29;13.60;99.90
34829;DHT22;21042;47.620;12.188;2023-05-19T08:12:57;13.80;99.90
34829;DHT22;21042;47.620;12.188;2023-05-19T08:15:23;13.80;99.90
34829;DHT22;21042;47.620;12.188;2023-05-19T08:17:50;13.80;99.90
34829;DHT22;21042;47.620;12.188;2023-05-19T08:20:18;13.80;99.90
34829;DHT22;21042;47.620;12.188;2023-05-19T08:22:44;13.80;99.90
34829;DHT22;21042;47.620;12.188;2023-05-19T08:25:11;13.70;99.90
34829;DHT22;21042;47.620;12.188;2023-05-19T08:27:39;13.70;99.90
34829;DHT22;21042;47.620;12.188;2023-05-19T08:30:06;13.70;99.90
34829;DHT22;21042;47.620;12.188;2023-05-19T08:32:33;13.60;99.90
34829;DHT22;21042;47.620;12.188;2023-05-19T08:35:00;13.70;99.90
34829;DHT22;21042;47.620;12.188;2023-05-19T08:37:27;13.70;99.90
34829;DHT22;21042;47.620;12.188;2023-05-19T08:39:53;13.70;99.90
34829;DHT22;21042;47.620;12.188;2023-05-19T08:42:20;13.70;99.90
34829;DHT22;21042;47.620;12.188;2023-05-19T08:44:47;13.60;99.90
34829;DHT22;21042;47.620;12.188;2023-05-19T08:47:14;13.60;99.90
34829;DHT22;21042;47.620;12.188;2023-05-19T08:49:45;13.50;99.90
34829;DHT22;21042;47.620;12.188;2023-05-19T08:52:26;13.50;99.90
34829;DHT22;21042;47.620;12.188;2023-05-19T08:55:06;13.50;99.90
34829;DHT22;21042;47.620;12.188;2023-05-19T08:57:35;13.70;99.90
34829;DHT22;21042;47.620;12.188;2023-05-19T09:00:04;13.80;99.90
34829;DHT22;21042;47.620;12.188;2023-05-19T09:02:36;13.80;99.90
34829;DHT22;21042;47.620;12.188;2023-05-19T09:05:21;14.00;99.90
34829;DHT22;21042;47.620;12.188;2023-05-19T09:07:48;14.10;99.90
34829;DHT22;21042;47.620;12.188;2023-05-19T09:10:15;14.10;99.90
34829;DHT22;21042;47.620;12.188;2023-05-19T09:12:44;14.10;99.90
34829;DHT22;21042;47.620;12.188;2023-05-19T09:15:11;14.00;99.90
34829;DHT22;21042;47.620;12.188;2023-05-19T09:17:38;14.10;99.90
34829;DHT22;21042;47.620;12.188;2023-05-19T09:20:06;14.20;99.90
34829;DHT22;21042;47.620;12.188;2023-05-19T09:22:43;14.30;99.90
34829;DHT22;21042;47.620;12.188;2023-05-19T09:25:22;14.20;99.90
34829;DHT22;21042;47.620;12.188;2023-05-19T09:27:49;14.20;99.90
34829;DHT22;21042;47.620;12.188;2023-05-19T09:30:17;14.30;99.90
34829;DHT22;21042;47.620;12.188;2023-05-19T09:32:44;14.50;99.90
34829;DHT22;21042;47.620;12.188;2023-05-19T09:35:12;14.50;99.90
34829;DHT22;21042;47.620;12.188;2023-05-19T09:37:42;14.40;99.90
34829;DHT22;21042;47.620;12.188;2023-05-19T09:40:10;14.40;99.90
34829;DHT22;21042;47.620;12.188;2023-05-19T09:42:40;14.40;99.90
34829;DHT22;21042;47.620;12.188;2023-05-19T09:45:08;14.40;99.90
34829;DHT22;21042;47.620;12.188;2023-05-19T09:47:36;14.30;99.90
34829;DHT22;21042;47.620;12.188;2023-05-19T09:50:10;14.30;99.90
34829;DHT22;21042;47.620;12.188;2023-05-19T09:52:38;14.30;99.90
34829;DHT22;21042;47.620;12.188;2023-05-19T09:55:09;14.40;99.90
34829;DHT22;21042;47.620;12.188;2023-05-19T09:57:37;14.50;99.90
34829;DHT22;21042;47.620;12.188;2023-05-19T10:00:09;14.50;99.90
34829;DHT22;21042;47.620;12.188;2023-05-19T10:02:40;14.70;99.90
34829;DHT22;21042;47.620;12.188;2023-05-19T10:05:16;15.00;99.90
34829;DHT22;21042;47.620;12.188;2023-05-19T10:07:46;15.40;99.90
34829;DHT22;21042;47.620;12.188;2023-05-19T10:10:15;15.50;99.90
34829;DHT22;21042;47.620;12.188;2023-05-19T10:12:42;15.60;99.90
34829;DHT22;21042;47.620;12.188;2023-05-19T10:15:17;15.70;99.90
34829;DHT22;21042;47.620;12.188;2023-05-19T10:17:47;15.70;99.90
34829;DHT22;21042;47.620;12.188;2023-05-19T10:20:16;15.50;99.90
34829;DHT22;21042;47.620;12.188;2023-05-19T10:22:45;15.30;99.90
34829;DHT22;21042;47.620;12.188;2023-05-19T10:25:12;15.10;99.90
34829;DHT22;21042;47.620;12.188;2023-05-19T10:27:55;14.90;99.90
34829;DHT22;21042;47.620;12.188;2023-05-19T10:30:27;15.00;99.90
34829;DHT22;21042;47.620;12.188;2023-05-19T10:32:55;15.00;99.90
34829;DHT22;21042;47.620;12.188;2023-05-19T10:40:58;15.00;99.90
34829;DHT22;21042;47.620;12.188;2023-05-19T10:46:04;15.00;99.90
34829;DHT22;21042;47.620;12.188;2023-05-19T10:48:32;15.10;99.90
34829;DHT22;21042;47.620;12.188;2023-05-19T10:51:03;15.30;99.90
34829;DHT22;21042;47.620;12.188;2023-05-19T10:53:32;15.40;99.90
34829;DHT22;21042;47.620;12.188;2023-05-19T10:56:01;15.50;99.90
34829;DHT22;21042;47.620;12.188;2023-05-19T11:01:13;15.50;99.90
34829;DHT22;21042;47.620;12.188;2023-05-19T11:03:50;15.80;99.90
34829;DHT22;21042;47.620;12.188;2023-05-19T11:08:57;15.90;99.90
34829;DHT22;21042;47.620;12.188;2023-05-19T11:11:45;15.90;99.90
34829;DHT22;21042;47.620;12.188;2023-05-19T11:14:14;16.00;99.90
34829;DHT22;21042;47.620;12.188;2023-05-19T11:16:46;16.00;99.90
34829;DHT22;21042;47.620;12.188;2023-05-19T11:22:10;15.90;99.90
34829;DHT22;21042;47.620;12.188;2023-05-19T11:27:30;15.90;99.90
34829;DHT22;21042;47.620;12.188;2023-05-19T11:32:30;15.90;99.90
34829;DHT22;21042;47.620;12.188;2023-05-19T11:34:59;15.90;99.90
34829;DHT22;21042;47.620;12.188;2023-05-19T11:37:26;16.00;99.90
34829;DHT22;21042;47.620;12.188;2023-05-19T11:39:59;15.90;99.90
34829;DHT22;21042;47.620;12.188;2023-05-19T11:42:26;15.80;99.90
34829;DHT22;21042;47.620;12.188;2023-05-19T11:44:56;15.80;99.90
34829;DHT22;21042;47.620;12.188;2023-05-19T11:47:23;15.90;99.90
34829;DHT22;21042;47.620;12.188;2023-05-19T11:49:50;16.00;99.90
34829;DHT22;21042;47.620;12.188;2023-05-19T11:52:21;16.10;99.90
34829;DHT22;21042;47.620;12.188;2023-05-19T11:54:48;16.20;99.90
34829;DHT22;21042;47.620;12.188;2023-05-19T11:57:16;16.20;99.90
34829;DHT22;21042;47.620;12.188;2023-05-19T11:59:43;16.20;99.90
34829;DHT22;21042;47.620;12.188;2023-05-19T12:02:37;16.60;99.90
34829;DHT22;21042;47.620;12.188;2023-05-19T12:05:04;16.70;99.90
34829;DHT22;21042;47.620;12.188;2023-05-19T12:07:31;16.80;99.90
34829;DHT22;21042;47.620;12.188;2023-05-19T12:09:58;17.10;99.90
34829;DHT22;21042;47.620;12.188;2023-05-19T12:12:28;17.40;99.90
34829;DHT22;21042;47.620;12.188;2023-05-19T12:14:55;17.50;99.90
34829;DHT22;21042;47.620;12.188;2023-05-19T12:17:22;17.40;99.90
34829;DHT22;21042;47.620;12.188;2023-05-19T12:19:49;17.30;99.90
34829;DHT22;21042;47.620;12.188;2023-05-19T12:22:16;17.10;99.90
34829;DHT22;21042;47.620;12.188;2023-05-19T12:24:44;17.00;99.90
34829;DHT22;21042;47.620;12.188;2023-05-19T12:27:15;16.90;99.90
34829;DHT22;21042;47.620;12.188;2023-05-19T12:29:42;16.90;99.90
34829;DHT22;21042;47.620;12.188;2023-05-19T12:32:09;17.00;99.90
34829;DHT22;21042;47.620;12.188;2023-05-19T12:34:37;17.20;99.90
34829;DHT22;21042;47.620;12.188;2023-05-19T12:37:04;17.20;99.90
34829;DHT22;21042;47.620;12.188;2023-05-19T12:39:32;17.10;99.90
34829;DHT22;21042;47.620;12.188;2023-05-19T12:42:06;17.10;99.90
34829;DHT22;21042;47.620;12.188;2023-05-19T12:44:37;17.10;99.90
34829;DHT22;21042;47.620;12.188;2023-05-19T12:47:05;17.20;99.90
34829;DHT22;21042;47.620;12.188;2023-05-19T12:49:33;17.10;99.90
34829;DHT22;21042;47.620;12.188;2023-05-19T12:52:00;16.90;99.90
34829;DHT22;21042;47.620;12.188;2023-05-19T12:54:34;16.70;99.90
34829;DHT22;21042;47.620;12.188;2023-05-19T12:57:04;16.60;99.90
34829;DHT22;21042;47.620;12.188;2023-05-19T12:59:32;16.50;99.90
34829;DHT22;21042;47.620;12.188;2023-05-19T13:02:05;16.40;99.90
34829;DHT22;21042;47.620;12.188;2023-05-19T13:04:32;16.20;99.90
34829;DHT22;21042;47.620;12.188;2023-05-19T13:06:59;16.20;99.90
34829;DHT22;21042;47.620;12.188;2023-05-19T13:09:25;16.20;99.90
34829;DHT22;21042;47.620;12.188;2023-05-19T13:11:53;16.20;99.90
34829;DHT22;21042;47.620;12.188;2023-05-19T13:14:20;16.00;99.90
34829;DHT22;21042;47.620;12.188;2023-05-19T13:16:47;15.90;99.90
34829;DHT22;21042;47.620;12.188;2023-05-19T13:19:17;15.90;99.90
34829;DHT22;21042;47.620;12.188;2023-05-19T13:21:51;15.90;99.90
34829;DHT22;21042;47.620;12.188;2023-05-19T13:24:18;16.00;99.90
34829;DHT22;21042;47.620;12.188;2023-05-19T13:26:45;15.90;99.90
34829;DHT22;21042;47.620;12.188;2023-05-19T13:29:11;15.90;99.90
34829;DHT22;21042;47.620;12.188;2023-05-19T13:31:38;15.90;99.90
34829;DHT22;21042;47.620;12.188;2023-05-19T13:34:05;16.00;99.90
34829;DHT22;21042;47.620;12.188;2023-05-19T13:36:32;16.00;99.90
34829;DHT22;21042;47.620;12.188;2023-05-19T13:39:00;16.00;99.90
34829;DHT22;21042;47.620;12.188;2023-05-19T13:41:27;16.10;99.90
34829;DHT22;21042;47.620;12.188;2023-05-19T13:43:57;16.20;99.90
34829;DHT22;21042;47.620;12.188;2023-05-19T13:46:24;16.10;99.90
34829;DHT22;21042;47.620;12.188;2023-05-19T13:49:10;16.10;99.90
34829;DHT22;21042;47.620;12.188;2023-05-19T13:51:36;16.30;99.90
34829;DHT22;21042;47.620;12.188;2023-05-19T13:54:03;16.30;99.90
34829;DHT22;21042;47.620;12.188;2023-05-19T13:56:30;16.40;99.90
34829;DHT22;21042;47.620;12.188;2023-05-19T13:58:57;16.40;99.90
34829;DHT22;21042;47.620;12.188;2023-05-19T14:01:24;16.50;99.90
34829;DHT22;21042;47.620;12.188;2023-05-19T14:03:51;16.60;99.90
34829;DHT22;21042;47.620;12.188;2023-05-19T14:06:18;16.70;99.90
34829;DHT22;21042;47.620;12.188;2023-05-19T14:08:45;16.60;99.90
34829;DHT22;21042;47.620;12.188;2023-05-19T14:11:17;16.70;99.90
34829;DHT22;21042;47.620;12.188;2023-05-19T14:13:47;16.70;99.90
34829;DHT22;21042;47.620;12.188;2023-05-19T14:16:18;16.60;99.90
34829;DHT22;21042;47.620;12.188;2023-05-19T14:18:48;16.60;99.90
34829;DHT22;21042;47.620;12.188;2023-05-19T14:21:14;16.50;99.90
34829;DHT22;21042;47.620;12.188;2023-05-19T14:23:41;16.50;99.90
34829;DHT22;21042;47.620;12.188;2023-05-19T14:26:08;16.60;99.90
34829;DHT22;21042;47.620;12.188;2023-05-19T14:28:35;16.70;99.90
34829;DHT22;21042;47.620;12.188;2023-05-19T14:31:02;16.60;99.90
34829;DHT22;21042;47.620;12.188;2023-05-19T14:33:29;16.60;99.90
34829;DHT22;21042;47.620;12.188;2023-05-19T14:36:01;16.60;99.90
34829;DHT22;21042;47.620;12.188;2023-05-19T14:38:27;16.60;99.90
34829;DHT22;21042;47.620;12.188;2023-05-19T14:40:55;16.60;99.90
34829;DHT22;21042;47.620;12.188;2023-05-19T14:43:22;16.50;99.90
34829;DHT22;21042;47.620;12.188;2023-05-19T14:45:49;16.40;99.90
34829;DHT22;21042;47.620;12.188;2023-05-19T14:48:16;16.40;99.90
34829;DHT22;21042;47.620;12.188;2023-05-19T14:50:43;16.40;99.90
34829;DHT22;21042;47.620;12.188;2023-05-19T14:53:10;16.20;99.90
34829;DHT22;21042;47.620;12.188;2023-05-19T14:55:37;16.10;99.90
34829;DHT22;21042;47.620;12.188;2023-05-19T14:58:04;15.90;99.90
34829;DHT22;21042;47.620;12.188;2023-05-19T15:00:51;15.70;99.90
34829;DHT22;21042;47.620;12.188;2023-05-19T15:03:17;15.60;99.90
34829;DHT22;21042;47.620;12.188;2023-05-19T15:05:45;15.60;99.90
34829;DHT22;21042;47.620;12.188;2023-05-19T15:08:11;15.50;99.90
34829;DHT22;21042;47.620;12.188;2023-05-19T15:10:38;15.60;99.90
34829;DHT22;21042;47.620;12.188;2023-05-19T15:13:05;15.70;99.90
34829;DHT22;21042;47.620;12.188;2023-05-19T15:15:32;16.00;99.90
34829;DHT22;21042;47.620;12.188;2023-05-19T15:17:59;16.30;99.90
34829;DHT22;21042;47.620;12.188;2023-05-19T15:20:26;16.60;99.90
34829;DHT22;21042;47.620;12.188;2023-05-19T15:22:55;16.80;99.90
34829;DHT22;21042;47.620;12.188;2023-05-19T15:25:21;16.90;99.90
34829;DHT22;21042;47.620;12.188;2023-05-19T15:27:48;17.10;99.90
34829;DHT22;21042;47.620;12.188;2023-05-19T15:30:15;17.10;99.90
34829;DHT22;21042;47.620;12.188;2023-05-19T15:32:42;16.80;99.90
34829;DHT22;21042;47.620;12.188;2023-05-19T15:35:09;16.80;99.90
34829;DHT22;21042;47.620;12.188;2023-05-19T15:37:35;16.70;99.90
34829;DHT22;21042;47.620;12.188;2023-05-19T15:40:02;16.50;99.90
34829;DHT22;21042;47.620;12.188;2023-05-19T15:42:29;16.50;99.90
34829;DHT22;21042;47.620;12.188;2023-05-19T15:44:56;16.50;99.90
34829;DHT22;21042;47.620;12.188;2023-05-19T15:47:23;16.80;99.90
34829;DHT22;21042;47.620;12.188;2023-05-19T15:49:50;16.90;99.90
34829;DHT22;21042;47.620;12.188;2023-05-19T15:52:17;17.10;99.90
34829;DHT22;21042;47.620;12.188;2023-05-19T15:54:43;17.40;99.90
34829;DHT22;21042;47.620;12.188;2023-05-19T15:57:10;17.30;99.90
34829;DHT22;21042;47.620;12.188;2023-05-19T15:59:38;17.20;99.90
34829;DHT22;21042;47.620;12.188;2023-05-19T16:02:05;16.80;99.90
34829;DHT22;21042;47.620;12.188;2023-05-19T16:04:32;16.60;99.90
34829;DHT22;21042;47.620;12.188;2023-05-19T16:06:59;16.30;99.90
34829;DHT22;21042;47.620;12.188;2023-05-19T16:09:26;16.40;99.90
34829;DHT22;21042;47.620;12.188;2023-05-19T16:11:53;16.20;99.90